Time;durP1;ratioP1;P1;durP2;ratioP2;P2;SDS_P1;SDS_P2;PMS_P1;PMS_P2;Temp;Humidity;BMP_temperature;BMP_pressure;BME280_temperature;BME280_humidity;BME280_pressure;Samples;Min_cycle;Max_cycle;Signal;HPM_P1;HPM_P2
2023/12/27 00:00:43;;;;;;;8.82;4.15;;;1.80;99.90;;;;;;4849109;29;20050;-80
2023/12/27 00:03:08;;;;;;;9.60;4.50;;;1.70;99.90;;;;;;4825792;29;20523;-80
2023/12/27 00:05:34;;;;;;;12.85;4.03;;;1.70;99.90;;;;;;4836738;29;20050;-80
2023/12/27 00:07:59;;;;;;;9.15;3.13;;;1.70;99.90;;;;;;4847064;29;20058;-80
2023/12/27 00:10:25;;;;;;;7.85;3.45;;;1.60;99.90;;;;;;4818995;29;20610;-80
2023/12/27 00:12:51;;;;;;;11.35;3.90;;;1.60;99.90;;;;;;4828041;29;20045;-80
2023/12/27 00:15:16;;;;;;;11.68;3.63;;;1.60;99.90;;;;;;4848519;29;20141;-80
2023/12/27 00:17:42;;;;;;;8.40;3.55;;;1.50;99.90;;;;;;4825045;29;20042;-80
2023/12/27 00:20:08;;;;;;;9.63;3.58;;;1.50;99.90;;;;;;4836719;29;20453;-79
2023/12/27 00:22:34;;;;;;;8.57;3.30;;;1.40;99.90;;;;;;4834036;29;20042;-80
2023/12/27 00:25:00;;;;;;;9.38;3.67;;;1.40;99.90;;;;;;4836033;29;20056;-80
2023/12/27 00:27:25;;;;;;;8.73;3.35;;;1.40;99.90;;;;;;4829550;29;20053;-80
2023/12/27 00:29:51;;;;;;;8.30;3.28;;;1.40;99.90;;;;;;4832815;29;20061;-79
2023/12/27 00:32:16;;;;;;;14.50;3.35;;;1.90;99.90;;;;;;4834790;29;20054;-80
2023/12/27 00:34:42;;;;;;;10.35;3.55;;;1.30;99.90;;;;;;4847931;29;20523;-80
2023/12/27 00:37:09;;;;;;;8.82;3.50;;;1.30;99.90;;;;;;4848919;29;20061;-80
2023/12/27 00:39:34;;;;;;;14.32;4.38;;;1.30;99.90;;;;;;4836049;29;20054;-80
2023/12/27 00:42:00;;;;;;;11.48;3.92;;;1.30;99.90;;;;;;4837419;29;20389;-79
2023/12/27 00:44:26;;;;;;;6.78;3.20;;;1.20;99.90;;;;;;4836305;29;20088;-80
2023/12/27 00:46:51;;;;;;;11.98;3.83;;;1.20;99.90;;;;;;4820080;29;20435;-80
2023/12/27 00:49:17;;;;;;;8.98;3.67;;;1.20;99.90;;;;;;4820846;29;20872;-80
2023/12/27 00:51:44;;;;;;;9.95;4.22;;;1.20;99.90;;;;;;4833649;29;20081;-80
2023/12/27 00:54:09;;;;;;;8.82;3.40;;;1.20;99.90;;;;;;4834890;29;20061;-80
2023/12/27 00:56:35;;;;;;;11.05;3.45;;;1.10;99.90;;;;;;4833331;29;20046;-80
2023/12/27 00:59:01;;;;;;;11.20;3.47;;;1.10;99.90;;;;;;4834944;29;20049;-80
2023/12/27 01:01:29;;;;;;;8.50;3.53;;;1.10;99.90;;;;;;4834993;29;20061;-80
2023/12/27 01:03:56;;;;;;;8.57;3.50;;;1.10;99.90;;;;;;4835951;29;20457;-80
2023/12/27 01:06:21;;;;;;;13.43;3.83;;;1.10;99.90;;;;;;4827558;29;20046;-80
2023/12/27 01:08:47;;;;;;;11.57;4.15;;;1.10;99.90;;;;;;4830348;29;20109;-80
2023/12/27 01:11:13;;;;;;;9.35;4.15;;;1.00;99.90;;;;;;4837450;29;20046;-80
2023/12/27 01:13:38;;;;;;;9.70;3.55;;;1.00;99.90;;;;;;4836146;29;20513;-80
2023/12/27 01:16:04;;;;;;;11.48;3.42;;;1.00;99.90;;;;;;4836850;29;20060;-80
2023/12/27 01:18:30;;;;;;;9.75;3.80;;;1.00;99.90;;;;;;4820176;29;20091;-80
2023/12/27 01:20:55;;;;;;;9.95;4.25;;;1.00;99.90;;;;;;4837424;29;20627;-80
2023/12/27 01:23:21;;;;;;;15.02;4.20;;;1.00;99.90;;;;;;4834367;29;20057;-80
2023/12/27 01:25:46;;;;;;;6.63;3.83;;;0.90;99.90;;;;;;4834955;29;20062;-80
2023/12/27 01:28:12;;;;;;;12.48;4.18;;;1.00;99.90;;;;;;4849344;29;20054;-80
2023/12/27 01:30:38;;;;;;;12.48;4.65;;;1.00;99.90;;;;;;4835311;29;20057;-80
2023/12/27 01:33:03;;;;;;;9.80;4.75;;;1.00;99.90;;;;;;4835545;29;20061;-80
2023/12/27 01:35:29;;;;;;;11.98;4.60;;;0.90;99.90;;;;;;4838651;29;20061;-80
2023/12/27 01:37:54;;;;;;;11.32;4.93;;;0.90;99.90;;;;;;4835593;29;20057;-80
2023/12/27 01:40:20;;;;;;;15.25;5.57;;;1.00;99.90;;;;;;4841105;29;20061;-80
2023/12/27 01:42:46;;;;;;;8.50;4.65;;;1.00;99.90;;;;;;4842203;29;20045;-80
2023/12/27 01:45:11;;;;;;;10.80;4.70;;;1.00;99.90;;;;;;4851870;29;20042;-80
2023/12/27 01:47:37;;;;;;;13.88;4.78;;;0.90;99.90;;;;;;4851256;29;20150;-80
2023/12/27 01:50:10;;;;;;;10.65;5.20;;;0.90;99.90;;;;;;4852669;29;20061;-80
2023/12/27 01:52:36;;;;;;;;;;;1.00;99.90;;;;;;4823922;29;20046;-80
2023/12/27 01:55:02;;;;;;;13.63;4.95;;;0.90;99.90;;;;;;4839312;29;19928;-80
2023/12/27 01:57:28;;;;;;;10.63;4.97;;;0.90;99.90;;;;;;4839488;29;20046;-80
2023/12/27 01:59:54;;;;;;;11.63;5.50;;;1.00;99.90;;;;;;4838431;29;20416;-79
2023/12/27 02:02:22;;;;;;;15.05;5.38;;;1.00;99.90;;;;;;4838175;29;20082;-80
2023/12/27 02:04:48;;;;;;;12.07;5.00;;;0.90;99.90;;;;;;4838547;29;20054;-80
2023/12/27 02:07:13;;;;;;;10.60;4.80;;;1.00;99.90;;;;;;4838521;29;20056;-80
2023/12/27 02:09:40;;;;;;;10.70;6.07;;;1.00;99.90;;;;;;4840412;29;20111;-80
2023/12/27 02:12:06;;;;;;;12.40;6.22;;;0.90;99.90;;;;;;4836777;29;20423;-80
2023/12/27 02:14:32;;;;;;;12.27;5.57;;;1.00;99.90;;;;;;4837781;29;20049;-79
2023/12/27 02:16:58;;;;;;;10.45;5.40;;;0.90;99.90;;;;;;4853056;29;20056;-80
2023/12/27 02:19:26;;;;;;;15.70;6.10;;;0.90;99.90;;;;;;4839294;29;20069;-80
2023/12/27 02:21:52;;;;;;;13.75;5.60;;;0.90;99.90;;;;;;4839774;29;20052;-80
2023/12/27 02:24:19;;;;;;;13.15;5.45;;;0.90;99.90;;;;;;4850456;29;20057;-80
2023/12/27 02:26:45;;;;;;;17.90;5.50;;;0.80;99.90;;;;;;4838605;29;20046;-79
2023/12/27 02:29:10;;;;;;;13.80;5.38;;;0.80;99.90;;;;;;4836892;29;20119;-80
2023/12/27 02:31:36;;;;;;;11.30;5.30;;;0.80;99.90;;;;;;4837597;29;20221;-80
2023/12/27 02:34:02;;;;;;;13.50;6.53;;;0.70;99.90;;;;;;4837617;29;20058;-80
2023/12/27 02:36:27;;;;;;;12.68;5.97;;;0.70;99.90;;;;;;4840231;29;20062;-79
2023/12/27 02:38:53;;;;;;;15.32;6.32;;;0.70;99.90;;;;;;4836784;29;20054;-80
2023/12/27 02:41:18;;;;;;;15.60;7.28;;;0.70;99.90;;;;;;4852970;29;20058;-80
2023/12/27 02:43:44;;;;;;;16.58;7.00;;;0.70;99.90;;;;;;4836248;29;20054;-80
2023/12/27 02:46:09;;;;;;;19.20;7.10;;;0.70;99.90;;;;;;4852935;29;20043;-80
2023/12/27 02:48:35;;;;;;;17.27;7.38;;;0.70;99.90;;;;;;4834394;29;20063;-80
2023/12/27 02:51:00;;;;;;;13.80;7.53;;;0.70;99.90;;;;;;4832854;29;20429;-80
2023/12/27 02:53:26;;;;;;;16.85;7.35;;;0.80;99.90;;;;;;4838964;29;20046;-80
2023/12/27 02:55:52;;;;;;;17.75;7.90;;;0.80;99.90;;;;;;4837275;29;20050;-80
2023/12/27 02:58:17;;;;;;;15.60;7.05;;;0.80;99.90;;;;;;4839377;29;20184;-80
2023/12/27 03:00:45;;;;;;;16.75;7.22;;;0.90;99.90;;;;;;4837757;29;20497;-80
2023/12/27 03:03:12;;;;;;;13.15;7.57;;;0.90;99.90;;;;;;4834156;29;20518;-80
2023/12/27 03:05:38;;;;;;;16.67;7.50;;;1.00;99.90;;;;;;4827877;29;20072;-80
2023/12/27 03:08:04;;;;;;;13.23;7.03;;;1.00;99.90;;;;;;4833630;29;20053;-80
2023/12/27 03:10:30;;;;;;;15.60;7.20;;;1.00;99.90;;;;;;4838893;29;20050;-80
2023/12/27 03:12:55;;;;;;;13.98;7.05;;;1.00;99.90;;;;;;4837009;29;20155;-80
2023/12/27 03:15:21;;;;;;;20.05;7.40;;;1.10;99.90;;;;;;4837548;29;20050;-80
2023/12/27 03:17:47;;;;;;;13.32;6.95;;;1.10;99.90;;;;;;4835893;29;20809;-80
2023/12/27 03:20:12;;;;;;;16.83;8.18;;;1.20;99.90;;;;;;4836509;29;20049;-80
2023/12/27 03:22:38;;;;;;;12.75;6.93;;;1.10;99.90;;;;;;4836886;29;20102;-80
2023/12/27 03:25:04;;;;;;;11.18;6.60;;;1.20;99.90;;;;;;4824375;29;20050;-79
2023/12/27 03:27:30;;;;;;;15.60;6.55;;;1.20;99.90;;;;;;4836193;29;20667;-80
2023/12/27 03:29:55;;;;;;;15.40;7.07;;;1.20;99.90;;;;;;4836711;29;20054;-80
2023/12/27 03:32:23;;;;;;;13.70;6.43;;;1.20;99.90;;;;;;4831755;29;20065;-79
2023/12/27 03:34:49;;;;;;;17.92;6.97;;;1.20;99.90;;;;;;4836531;29;20678;-80
2023/12/27 03:37:15;;;;;;;11.50;6.25;;;1.20;99.90;;;;;;4836186;29;20053;-80
2023/12/27 03:39:43;;;;;;;11.25;5.90;;;1.10;99.90;;;;;;4838405;29;20158;-80
2023/12/27 03:42:12;;;;;;;10.15;6.07;;;1.10;99.90;;;;;;4838037;29;20053;-80
2023/12/27 03:44:38;;;;;;;11.35;5.88;;;1.10;99.90;;;;;;4837448;29;20133;-80
2023/12/27 03:47:04;;;;;;;17.10;5.82;;;1.10;99.90;;;;;;4836155;29;20540;-79
2023/12/27 03:49:30;;;;;;;15.32;6.00;;;1.00;99.90;;;;;;4837293;29;20090;-80
2023/12/27 03:51:55;;;;;;;9.50;5.63;;;1.10;99.90;;;;;;4835560;29;20140;-80
2023/12/27 03:54:21;;;;;;;10.43;5.43;;;1.00;99.90;;;;;;4838304;29;20525;-80
2023/12/27 03:56:47;;;;;;;11.23;5.47;;;1.00;99.90;;;;;;4825785;29;20065;-79
2023/12/27 03:59:14;;;;;;;7.15;5.32;;;1.00;99.90;;;;;;4834705;29;20550;-79
2023/12/27 04:01:39;;;;;;;10.05;5.63;;;1.00;99.90;;;;;;4836160;29;20050;-80
2023/12/27 04:04:05;;;;;;;11.73;5.68;;;1.00;99.90;;;;;;4837858;29;20417;-79
2023/12/27 04:06:31;;;;;;;9.60;5.93;;;1.10;99.90;;;;;;4838140;29;20053;-80
2023/12/27 04:08:56;;;;;;;12.30;6.38;;;1.10;99.90;;;;;;4836341;29;20543;-80
2023/12/27 04:11:22;;;;;;;12.52;6.05;;;1.10;99.90;;;;;;4838243;29;20046;-79
2023/12/27 04:13:47;;;;;;;11.68;5.50;;;1.10;99.90;;;;;;4836823;29;20054;-80
2023/12/27 04:16:13;;;;;;;13.90;5.93;;;1.10;99.90;;;;;;4836217;29;20114;-80
2023/12/27 04:18:39;;;;;;;12.60;6.45;;;1.10;99.90;;;;;;4835751;29;20057;-80
2023/12/27 04:21:04;;;;;;;14.00;5.43;;;1.10;99.90;;;;;;4848829;29;21505;-79
2023/12/27 04:23:30;;;;;;;12.60;5.78;;;1.10;99.90;;;;;;4825372;29;20069;-79
2023/12/27 04:25:56;;;;;;;12.57;6.13;;;1.10;99.90;;;;;;4826263;29;20125;-80
2023/12/27 04:28:22;;;;;;;11.95;6.03;;;1.10;99.90;;;;;;4825886;29;20177;-79
2023/12/27 04:30:47;;;;;;;9.43;5.47;;;1.20;99.90;;;;;;4836231;29;20091;-80
2023/12/27 04:33:13;;;;;;;12.02;5.85;;;1.20;99.90;;;;;;4835312;29;20046;-80
2023/12/27 04:35:39;;;;;;;9.00;5.85;;;1.20;99.90;;;;;;4835230;29;20064;-80
2023/12/27 04:38:04;;;;;;;11.65;5.95;;;1.30;99.90;;;;;;4836374;29;20882;-79
2023/12/27 04:40:30;;;;;;;11.40;6.40;;;1.30;99.90;;;;;;4836005;29;20485;-80
2023/12/27 04:42:55;;;;;;;13.77;5.75;;;1.30;99.90;;;;;;4836493;29;20130;-79
2023/12/27 04:45:21;;;;;;;9.57;5.32;;;1.30;99.90;;;;;;4835722;29;20141;-80
2023/12/27 04:47:46;;;;;;;13.40;5.75;;;1.30;99.90;;;;;;4835933;29;20053;-80
2023/12/27 04:50:12;;;;;;;12.95;6.07;;;1.30;99.90;;;;;;4837095;29;20797;-80
2023/12/27 04:52:38;;;;;;;12.38;6.35;;;1.30;99.90;;;;;;4836143;29;20106;-79
2023/12/27 04:55:04;;;;;;;14.10;6.85;;;1.30;99.90;;;;;;4836051;29;20046;-80
2023/12/27 04:57:29;;;;;;;13.85;6.60;;;1.40;99.90;;;;;;4835493;29;20050;-80
2023/12/27 04:59:55;;;;;;;24.42;8.63;;;1.40;99.90;;;;;;4834876;29;20050;-80
2023/12/27 05:02:20;;;;;;;13.55;6.60;;;1.40;99.90;;;;;;4836063;29;20054;-80
2023/12/27 05:04:46;;;;;;;13.25;7.63;;;1.40;99.90;;;;;;4837791;29;20050;-80
2023/12/27 05:07:13;;;;;;;15.07;7.65;;;1.40;99.90;;;;;;4848735;29;20087;-79
2023/12/27 05:09:39;;;;;;;12.60;7.25;;;1.40;99.90;;;;;;4837088;29;20044;-79
2023/12/27 05:12:05;;;;;;;16.10;6.78;;;1.50;99.90;;;;;;4836189;29;20053;-79
2023/12/27 05:14:31;;;;;;;14.25;6.30;;;1.50;99.90;;;;;;4836573;29;20057;-80
2023/12/27 05:16:56;;;;;;;10.20;6.38;;;1.50;99.90;;;;;;4834428;29;20050;-79
2023/12/27 05:19:22;;;;;;;10.85;5.40;;;1.50;99.90;;;;;;4835668;29;20133;-80
2023/12/27 05:21:47;;;;;;;13.00;6.57;;;1.50;99.90;;;;;;4836992;29;20480;-80
2023/12/27 05:24:13;;;;;;;11.48;6.15;;;1.50;99.90;;;;;;4832733;29;20085;-79
2023/12/27 05:26:38;;;;;;;11.02;6.63;;;1.50;99.90;;;;;;4827977;29;20073;-80
2023/12/27 05:29:04;;;;;;;11.93;7.15;;;1.60;99.90;;;;;;4834202;29;20049;-80
2023/12/27 05:31:30;;;;;;;13.85;7.03;;;1.50;99.90;;;;;;4835445;29;20050;-80
2023/12/27 05:33:55;;;;;;;9.68;6.38;;;1.60;99.90;;;;;;4834725;29;20050;-80
2023/12/27 05:36:21;;;;;;;11.77;6.50;;;1.60;99.90;;;;;;4835932;29;20547;-79
2023/12/27 05:38:47;;;;;;;7.90;5.75;;;1.60;99.90;;;;;;4849938;29;20125;-79
2023/12/27 05:41:13;;;;;;;10.70;6.93;;;1.60;99.90;;;;;;4836759;29;20089;-80
2023/12/27 05:43:38;;;;;;;13.73;7.07;;;1.60;99.90;;;;;;4833950;29;20045;-80
2023/12/27 05:46:04;;;;;;;12.60;6.68;;;1.70;99.90;;;;;;4830955;29;20114;-80
2023/12/27 05:48:30;;;;;;;10.15;6.45;;;1.60;99.90;;;;;;4835250;29;20090;-80
2023/12/27 05:50:56;;;;;;;9.02;6.63;;;1.60;99.90;;;;;;4835332;29;20110;-80
2023/12/27 05:53:22;;;;;;;11.15;7.20;;;1.70;99.90;;;;;;4835252;29;20053;-80
2023/12/27 05:55:49;;;;;;;10.02;7.40;;;1.70;99.90;;;;;;4835505;29;20050;-80
2023/12/27 05:58:14;;;;;;;11.43;8.35;;;1.70;99.90;;;;;;4835313;29;20107;-80
2023/12/27 06:00:40;;;;;;;16.13;8.35;;;1.70;99.90;;;;;;4835038;29;20054;-80
2023/12/27 06:03:05;;;;;;;13.68;7.93;;;1.80;99.90;;;;;;4823806;29;20038;-80
2023/12/27 06:05:31;;;;;;;15.60;8.02;;;1.80;99.90;;;;;;4835230;29;20416;-80
2023/12/27 06:07:57;;;;;;;13.23;8.27;;;1.80;99.90;;;;;;4827934;29;20054;-80
2023/12/27 06:10:23;;;;;;;12.43;8.48;;;1.90;99.90;;;;;;4834379;29;20046;-80
2023/12/27 06:12:49;;;;;;;10.93;8.48;;;1.90;99.90;;;;;;4834872;29;20046;-80
2023/12/27 06:15:15;;;;;;;14.20;8.02;;;1.90;99.90;;;;;;4836743;29;20050;-80
2023/12/27 06:17:42;;;;;;;14.50;8.68;;;1.90;99.90;;;;;;4819946;29;20058;-80
2023/12/27 06:20:09;;;;;;;16.45;8.90;;;1.90;99.90;;;;;;4831275;29;20085;-80
2023/12/27 06:22:34;;;;;;;15.70;8.70;;;2.00;99.90;;;;;;4820043;29;20126;-80
2023/12/27 06:25:00;;;;;;;17.35;9.00;;;2.10;99.90;;;;;;4836952;29;20427;-80
2023/12/27 06:27:26;;;;;;;20.27;8.85;;;2.20;99.90;;;;;;4853922;29;20042;-80
2023/12/27 06:29:51;;;;;;;16.67;8.63;;;2.30;99.90;;;;;;4838278;29;20046;-80
2023/12/27 06:32:17;;;;;;;16.10;9.40;;;2.30;99.90;;;;;;4839017;29;20050;-80
2023/12/27 06:34:42;;;;;;;14.95;8.82;;;2.40;99.90;;;;;;4837307;29;20448;-81
2023/12/27 06:37:08;;;;;;;14.52;8.55;;;2.40;99.90;;;;;;4823864;29;20046;-80
2023/12/27 06:39:33;;;;;;;21.00;9.02;;;2.50;99.90;;;;;;4853939;29;20393;-80
2023/12/27 06:42:00;;;;;;;16.13;8.70;;;2.50;99.90;;;;;;4829945;29;20050;-80
2023/12/27 06:44:26;;;;;;;22.38;8.73;;;2.60;99.90;;;;;;4832117;29;20637;-80
2023/12/27 06:46:52;;;;;;;19.73;8.73;;;2.60;99.90;;;;;;4838387;29;20106;-79
2023/12/27 06:49:18;;;;;;;13.43;9.55;;;2.60;99.90;;;;;;4837164;29;20065;-79
2023/12/27 06:51:44;;;;;;;16.58;9.02;;;2.70;99.90;;;;;;4819769;29;20052;-80
2023/12/27 06:54:09;;;;;;;19.08;9.27;;;2.70;99.90;;;;;;4831599;29;20565;-79
2023/12/27 06:56:38;;;;;;;21.27;10.40;;;2.60;99.90;;;;;;4839620;29;20045;-80
2023/12/27 06:59:04;;;;;;;22.25;10.57;;;2.70;99.90;;;;;;4837100;29;20068;-80
2023/12/27 07:01:30;;;;;;;17.25;10.15;;;2.70;99.90;;;;;;4838004;29;20049;-80
2023/12/27 07:03:55;;;;;;;20.65;10.80;;;2.70;99.90;;;;;;4837299;29;20495;-80
2023/12/27 07:06:21;;;;;;;19.55;10.02;;;2.80;99.90;;;;;;4834355;29;20053;-79
2023/12/27 07:08:46;;;;;;;17.20;9.93;;;2.80;99.90;;;;;;4850589;29;20583;-79
2023/12/27 07:11:19;;;;;;;22.17;9.73;;;2.90;99.90;;;;;;4837166;29;20076;-79
2023/12/27 07:13:48;;;;;;;13.25;9.40;;;2.90;99.90;;;;;;4821719;29;20058;-80
2023/12/27 07:16:14;;;;;;;22.88;10.52;;;2.90;99.90;;;;;;4850759;29;20066;-80
2023/12/27 07:18:40;;;;;;;17.67;8.77;;;2.90;99.90;;;;;;4821090;29;20438;-80
2023/12/27 07:21:06;;;;;;;15.15;9.02;;;3.00;99.90;;;;;;4850739;29;20054;-80
2023/12/27 07:23:32;;;;;;;19.35;9.70;;;3.00;99.90;;;;;;4834991;29;20062;-80
2023/12/27 07:25:59;;;;;;;15.15;8.68;;;3.10;99.90;;;;;;4834495;29;20442;-79
2023/12/27 07:28:26;;;;;;;19.77;8.75;;;3.10;99.90;;;;;;4847704;29;20061;-79
2023/12/27 07:30:52;;;;;;;16.77;9.05;;;3.10;99.90;;;;;;4822571;29;20145;-80
2023/12/27 07:33:17;;;;;;;22.60;9.50;;;3.20;99.90;;;;;;4836835;29;20457;-80
2023/12/27 07:35:44;;;;;;;16.60;8.88;;;3.20;99.90;;;;;;4836744;29;20062;-80
2023/12/27 07:38:10;;;;;;;22.30;9.15;;;3.20;99.90;;;;;;4833456;29;20149;-80
2023/12/27 07:40:35;;;;;;;18.98;8.93;;;3.30;99.90;;;;;;4832602;29;20064;-80
2023/12/27 07:43:03;;;;;;;18.95;9.65;;;3.30;99.90;;;;;;4832566;29;20049;-80
2023/12/27 07:45:28;;;;;;;20.25;9.18;;;3.30;99.90;;;;;;4838499;29;20086;-80
2023/12/27 07:47:54;;;;;;;15.02;8.45;;;3.40;99.90;;;;;;4838311;29;20078;-80
2023/12/27 07:50:20;;;;;;;20.33;8.55;;;3.40;99.90;;;;;;4838797;29;20069;-79
2023/12/27 07:52:46;;;;;;;16.17;8.90;;;3.10;99.90;;;;;;4837616;29;20061;-80
2023/12/27 07:55:12;;;;;;;17.42;8.60;;;3.50;99.90;;;;;;4838478;29;20050;-80
2023/12/27 07:57:38;;;;;;;18.02;8.35;;;3.50;99.90;;;;;;4838254;29;20052;-80
2023/12/27 08:00:07;;;;;;;18.25;8.80;;;3.60;99.90;;;;;;4848809;29;20136;-79
2023/12/27 08:02:32;;;;;;;18.30;8.65;;;3.60;99.90;;;;;;4836473;29;20731;-81
2023/12/27 08:04:58;;;;;;;22.15;7.82;;;3.70;99.90;;;;;;4818822;29;20153;-80
2023/12/27 08:07:23;;;;;;;16.17;8.50;;;3.80;99.90;;;;;;4819292;29;20385;-82
2023/12/27 08:09:49;;;;;;;16.67;7.78;;;3.80;99.90;;;;;;4822684;29;20046;-79
2023/12/27 08:12:14;;;;;;;14.85;7.68;;;3.80;99.90;;;;;;4838328;29;20057;-80
2023/12/27 08:14:40;;;;;;;16.23;7.20;;;3.90;99.90;;;;;;4838335;29;20046;-80
2023/12/27 08:17:07;;;;;;;17.65;7.72;;;3.80;99.90;;;;;;4828803;29;20046;-80
2023/12/27 08:19:32;;;;;;;15.05;7.38;;;3.90;99.90;;;;;;4819899;29;20057;-80
2023/12/27 08:21:58;;;;;;;14.05;7.78;;;3.90;99.90;;;;;;4819590;29;20051;-79
2023/12/27 08:24:24;;;;;;;16.67;7.50;;;4.00;99.90;;;;;;4819942;29;20079;-80
2023/12/27 08:26:49;;;;;;;20.38;7.78;;;4.00;99.90;;;;;;4820096;29;20416;-80
2023/12/27 08:29:15;;;;;;;17.83;8.25;;;4.10;99.90;;;;;;4819669;29;20050;-80
2023/12/27 08:31:40;;;;;;;15.20;7.30;;;4.10;99.90;;;;;;4820041;29;20054;-80
2023/12/27 08:34:06;;;;;;;14.95;7.47;;;4.10;99.90;;;;;;4819498;29;20054;-80
2023/12/27 08:36:32;;;;;;;13.98;7.05;;;4.10;99.90;;;;;;4820080;29;20054;-80
2023/12/27 08:38:57;;;;;;;15.40;7.72;;;4.20;99.90;;;;;;4818148;29;20425;-80
2023/12/27 08:41:24;;;;;;;16.42;8.00;;;4.20;99.90;;;;;;4818242;29;20066;-77
2023/12/27 08:43:51;;;;;;;14.10;7.82;;;4.20;99.90;;;;;;4831714;29;20046;-77
2023/12/27 08:46:20;;;;;;;17.58;7.70;;;4.20;99.90;;;;;;4832116;29;20068;-79
2023/12/27 08:48:46;;;;;;;16.23;7.45;;;4.20;99.90;;;;;;4819997;29;20054;-80
2023/12/27 08:51:12;;;;;;;12.48;7.78;;;4.30;99.90;;;;;;4818657;29;20064;-80
2023/12/27 08:53:38;;;;;;;16.13;8.02;;;4.30;99.90;;;;;;4818405;29;20058;-79
2023/12/27 08:56:04;;;;;;;15.27;7.38;;;4.30;99.90;;;;;;4818630;29;20050;-79
2023/12/27 08:58:30;;;;;;;15.07;8.20;;;4.30;99.90;;;;;;4817926;29;20060;-78
2023/12/27 09:00:58;;;;;;;13.80;7.97;;;4.30;99.90;;;;;;4817976;29;20129;-80
2023/12/27 09:03:24;;;;;;;16.15;8.88;;;4.40;99.90;;;;;;4818695;29;20062;-79
2023/12/27 09:05:50;;;;;;;17.08;8.65;;;4.40;99.90;;;;;;4819448;29;20050;-79
2023/12/27 09:08:15;;;;;;;12.60;7.80;;;4.40;99.90;;;;;;4826327;29;20508;-80
2023/12/27 09:10:41;;;;;;;18.40;8.98;;;4.50;99.90;;;;;;4830515;29;20050;-79
2023/12/27 09:13:06;;;;;;;18.13;8.57;;;4.50;99.90;;;;;;4819081;29;20145;-79
2023/12/27 09:15:32;;;;;;;16.75;8.98;;;4.50;99.90;;;;;;4833375;29;20413;-79
2023/12/27 09:17:58;;;;;;;17.63;8.80;;;4.50;99.90;;;;;;4824006;29;20042;-80
2023/12/27 09:20:24;;;;;;;18.23;9.07;;;4.50;99.90;;;;;;4835243;29;20046;-80
2023/12/27 09:22:49;;;;;;;19.85;9.43;;;4.60;99.90;;;;;;4832407;29;20087;-79
2023/12/27 09:25:15;;;;;;;18.60;9.50;;;4.60;99.90;;;;;;4834887;29;20069;-79
2023/12/27 09:27:40;;;;;;;15.57;9.50;;;4.60;99.90;;;;;;4849890;29;20661;-78
2023/12/27 09:30:06;;;;;;;17.75;9.25;;;4.60;99.90;;;;;;4836035;29;20068;-81
2023/12/27 09:32:32;;;;;;;21.05;9.35;;;4.70;99.90;;;;;;4851328;29;20133;-81
2023/12/27 09:34:58;;;;;;;19.63;9.55;;;4.60;99.90;;;;;;4835713;29;20762;-80
2023/12/27 09:37:23;;;;;;;18.67;9.48;;;4.70;99.90;;;;;;4836060;29;20049;-80
2023/12/27 09:39:49;;;;;;;15.88;9.45;;;4.70;99.90;;;;;;4836116;29;20050;-80
2023/12/27 09:42:15;;;;;;;15.88;9.95;;;4.70;99.90;;;;;;4833458;29;20061;-80
2023/12/27 09:44:43;;;;;;;17.40;10.20;;;4.70;99.90;;;;;;4836456;29;20046;-81
2023/12/27 09:47:10;;;;;;;17.70;10.32;;;4.80;99.90;;;;;;4836117;29;20103;-80
2023/12/27 09:49:37;;;;;;;20.63;11.48;;;4.80;99.90;;;;;;4829165;29;20054;-80
2023/12/27 09:52:05;;;;;;;18.40;9.93;;;4.90;99.90;;;;;;4834791;29;20088;-79
2023/12/27 09:54:30;;;;;;;18.13;9.48;;;4.90;99.90;;;;;;4827452;29;20054;-80
2023/12/27 09:56:56;;;;;;;14.57;9.85;;;4.90;99.90;;;;;;4835722;29;20124;-80
2023/12/27 09:59:27;;;;;;;16.23;9.57;;;4.90;99.90;;;;;;4833588;29;20046;-80
2023/12/27 10:02:00;;;;;;;22.83;9.55;;;4.90;99.90;;;;;;4821008;29;20079;-81
2023/12/27 10:05:02;;;;;;;16.70;9.18;;;5.00;99.90;;;;;;4820792;29;20092;-80
2023/12/27 10:07:30;;;;;;;19.40;8.80;;;5.00;99.90;;;;;;4819157;29;20061;-80
2023/12/27 10:09:55;;;;;;;18.20;8.65;;;5.60;99.90;;;;;;4839259;29;20066;-80
2023/12/27 10:12:21;;;;;;;13.15;8.55;;;5.00;99.90;;;;;;4838706;29;20457;-81
2023/12/27 10:14:50;;;;;;;20.98;9.07;;;5.10;99.90;;;;;;4840264;29;20145;-81
2023/12/27 10:17:17;;;;;;;15.10;9.27;;;5.10;99.90;;;;;;4838899;29;20058;-80
2023/12/27 10:19:47;;;;;;;22.77;9.25;;;5.10;99.90;;;;;;4838964;29;20050;-80
2023/12/27 10:22:13;;;;;;;16.27;9.43;;;5.10;99.90;;;;;;4853021;29;20057;-81
2023/12/27 10:24:39;;;;;;;20.67;9.43;;;5.20;99.90;;;;;;4838385;29;20049;-81
2023/12/27 10:27:07;;;;;;;14.38;8.75;;;5.20;99.90;;;;;;4840019;29;20049;-81
2023/12/27 10:29:33;;;;;;;21.30;9.65;;;5.20;99.90;;;;;;4854191;29;20054;-81
2023/12/27 10:32:00;;;;;;;14.82;9.07;;;5.20;99.90;;;;;;4838641;29;20050;-80
2023/12/27 10:34:27;;;;;;;16.65;9.18;;;5.20;99.90;;;;;;4837923;29;20467;-78
2023/12/27 10:36:57;;;;;;;14.93;9.50;;;5.20;99.90;;;;;;4838470;29;20050;-79
2023/12/27 10:39:23;;;;;;;17.77;8.73;;;5.20;99.90;;;;;;4837230;29;20144;-79
2023/12/27 10:41:53;;;;;;;20.42;9.10;;;5.20;99.90;;;;;;4837248;29;20056;-79
2023/12/27 10:44:19;;;;;;;14.43;9.25;;;6.00;99.90;;;;;;4836018;29;20726;-79
2023/12/27 10:46:46;;;;;;;19.50;9.68;;;5.20;99.90;;;;;;4835399;29;20066;-78
2023/12/27 10:49:13;;;;;;;19.10;9.90;;;5.20;99.90;;;;;;4858206;29;20050;-79
2023/12/27 10:51:40;;;;;;;16.65;9.35;;;5.30;99.90;;;;;;4837701;29;20844;-80
2023/12/27 10:54:06;;;;;;;20.17;10.18;;;5.30;99.90;;;;;;4856485;29;20129;-79
2023/12/27 10:56:38;;;;;;;17.13;9.80;;;5.30;99.90;;;;;;4838669;29;20129;-79
2023/12/27 10:59:10;;;;;;;17.67;9.60;;;5.40;99.90;;;;;;4839149;29;20082;-80
2023/12/27 11:01:38;;;;;;;18.10;8.85;;;5.30;99.90;;;;;;4837792;29;20106;-79
2023/12/27 11:04:10;;;;;;;18.65;9.32;;;5.40;99.90;;;;;;4853190;29;20055;-80
2023/12/27 11:06:39;;;;;;;17.00;9.63;;;5.40;99.90;;;;;;4838391;29;20786;-78
2023/12/27 11:09:07;;;;;;;22.50;10.20;;;5.40;99.90;;;;;;4853844;29;20050;-79
2023/12/27 11:11:38;;;;;;;16.77;9.88;;;5.30;99.90;;;;;;4839485;29;20144;-80
2023/12/27 11:14:05;;;;;;;19.40;9.85;;;5.30;99.90;;;;;;4838721;29;20054;-79
2023/12/27 11:16:35;;;;;;;16.33;9.57;;;5.30;99.90;;;;;;4838370;29;20495;-79
2023/12/27 11:19:07;;;;;;;17.35;9.77;;;5.30;99.90;;;;;;4839413;29;20128;-79
2023/12/27 11:21:36;;;;;;;20.38;10.02;;;5.30;99.90;;;;;;4837322;29;20050;-79
2023/12/27 11:24:04;;;;;;;19.17;10.13;;;5.40;99.90;;;;;;4837076;29;20122;-79
2023/12/27 11:26:33;;;;;;;15.73;9.73;;;5.30;99.90;;;;;;4837316;29;20431;-79
2023/12/27 11:29:00;;;;;;;20.83;11.23;;;5.30;99.90;;;;;;4824643;29;20049;-79
2023/12/27 11:31:28;;;;;;;13.05;9.82;;;5.30;99.90;;;;;;4846077;29;20467;-79
2023/12/27 11:33:54;;;;;;;16.40;9.57;;;5.30;99.90;;;;;;4857843;29;20062;-79
2023/12/27 11:36:25;;;;;;;16.70;9.10;;;5.30;99.90;;;;;;4855858;29;20070;-79
2023/12/27 11:38:53;;;;;;;17.73;10.00;;;5.90;99.90;;;;;;4837275;29;20126;-79
2023/12/27 11:41:19;;;;;;;18.73;10.93;;;5.30;99.90;;;;;;4835425;29;20039;-79
2023/12/27 11:44:06;;;;;;;16.23;9.68;;;5.30;99.90;;;;;;4834865;29;20050;-79
2023/12/27 11:46:32;;;;;;;20.65;10.43;;;5.30;99.90;;;;;;4832292;29;20421;-79
2023/12/27 11:48:59;;;;;;;16.27;9.98;;;5.30;99.90;;;;;;4835380;29;20071;-81
2023/12/27 11:51:34;;;;;;;22.50;10.32;;;5.30;99.90;;;;;;4836908;29;20465;-79
2023/12/27 11:54:01;;;;;;;13.98;9.50;;;5.40;99.90;;;;;;4840824;29;20049;-82
2023/12/27 11:56:31;;;;;;;18.42;9.70;;;5.30;99.90;;;;;;4837983;29;20048;-81
2023/12/27 11:59:01;;;;;;;17.85;10.27;;;5.30;99.90;;;;;;4835217;29;20050;-80
2023/12/27 12:01:28;;;;;;;17.52;10.68;;;5.30;99.90;;;;;;4835358;29;20060;-78
2023/12/27 12:04:18;;;;;;;15.85;10.50;;;5.40;99.90;;;;;;4836882;29;20513;-77
2023/12/27 12:07:10;;;;;;;15.68;9.93;;;5.30;99.90;;;;;;4837829;29;20058;-78
2023/12/27 12:09:44;;;;;;;15.95;9.77;;;5.40;99.90;;;;;;4837310;29;20049;-78
2023/12/27 12:12:17;;;;;;;14.25;10.15;;;5.40;99.90;;;;;;4836717;29;20389;-78
2023/12/27 12:14:44;;;;;;;15.82;10.57;;;5.40;99.90;;;;;;4836104;29;20046;-78
2023/12/27 12:17:10;;;;;;;15.82;10.60;;;5.40;99.90;;;;;;4836457;29;20136;-78
2023/12/27 12:19:36;;;;;;;17.00;11.00;;;5.40;99.90;;;;;;4837998;29;20056;-79
2023/12/27 12:22:03;;;;;;;17.95;11.32;;;5.50;99.90;;;;;;4835990;29;20612;-78
2023/12/27 12:24:29;;;;;;;14.63;10.48;;;5.50;99.90;;;;;;4835923;29;20114;-78
2023/12/27 12:26:56;;;;;;;18.52;10.52;;;5.40;99.90;;;;;;4836253;29;20041;-78
2023/12/27 12:29:25;;;;;;;16.63;10.88;;;5.50;99.90;;;;;;4835954;29;20069;-78
2023/12/27 12:31:54;;;;;;;18.02;11.15;;;5.50;99.90;;;;;;4851432;29;20133;-78
2023/12/27 12:34:20;;;;;;;18.40;11.40;;;5.60;99.90;;;;;;4837920;29;20062;-78
2023/12/27 12:36:45;;;;;;;17.77;11.85;;;5.60;99.90;;;;;;4835808;29;20062;-79
2023/12/27 12:39:14;;;;;;;15.95;11.02;;;5.60;99.90;;;;;;4836481;29;20050;-79
2023/12/27 12:41:40;;;;;;;20.10;11.85;;;5.60;99.90;;;;;;4835917;29;20049;-79
2023/12/27 12:44:09;;;;;;;18.45;11.70;;;5.70;99.90;;;;;;4819961;29;20482;-79